Hamburg Pearl — C6CM5 — position and weather

sailwx.info

Track history (hours):
 
Tides and Currents Weather Stations Pressure Air Temp Water Temp Dewpoint Dewpoint Depression Visibility Wind Speed Wind Dir Waves Ship Positions

Hamburg Pearl

Last reported at 2018-Jul-22 00:33 UTC. Time now 2018-Jul-22 22:02 UTC.
Position N 32°55' W 079°57'.

Length 178 m; draft 11 m.

Type: Ship. MMSI: 311000512.

Date/timePositionNaut miles runAvg speedWind from/ knotsBaromVisibWave heightAir tempDewpointWater temp
2018-Jul-22 00:33N 32°55' W 079°57'0 0.0
2018-Jul-22 00:30N 32°55' W 079°57'0 0.0
2018-Jul-21 23:57N 32°55' W 079°57'0 0.0
2018-Jul-21 23:27N 32°55' W 079°57'0 0.0
2018-Jul-21 15:33N 32°55' W 079°57'0 0.0
2018-Jul-21 15:03N 32°55' W 079°57'0 0.0
2018-Jul-21 14:57N 32°55' W 079°57'0 0.0
2018-Jul-20 09:42N 32°55' W 079°57'0 0.0
2018-Jul-20 06:57N 32°55' W 079°57'0 0.0
2018-Jul-19 06:39N 32°55' W 079°57'0 0.0
2018-Jul-19 06:27N 32°55' W 079°57'0 0.0
2018-Jul-18 18:48N 32°55' W 079°57'0 0.0
2018-Jul-18 18:30N 32°55' W 079°57'0 0.0
2018-Jul-18 10:27N 32°55' W 079°57'0 0.0
2018-Jul-17 22:18N 32°55' W 079°57'0 0.0
2018-Jul-17 21:57N 32°55' W 079°57'0 0.0
2018-Jul-17 08:45N 32°55' W 079°57'0 0.0
2018-Jul-17 03:42N 32°55' W 079°57'0 0.0
2018-Jul-17 03:15N 32°55' W 079°57'0 0.0
2018-Jul-15 18:33N 32°55' W 079°57'0 0.0
2018-Jul-15 15:52N 32°55' W 079°57'1 3.4
2018-Jul-15 15:30N 32°54' W 079°58'4 7.7
2018-Jul-15 15:00N 32°50' W 079°56'5 9.4
2018-Jul-15 14:30N 32°46' W 079°53'  
2018-Jul-13 01:52N 32°40' W 079°35'0 0.0
2018-Jul-12 23:34N 32°40' W 079°36'0 0.1
2018-Jul-12 23:22N 32°40' W 079°36'0 0.0
2018-Jul-12 09:16N 32°40' W 079°36'0 0.0
2018-Jul-12 07:52N 32°40' W 079°36'0 0.0
2018-Jul-12 07:22N 32°40' W 079°36'0 0.0
2018-Jul-12 05:16N 32°40' W 079°36'0 0.0
2018-Jul-12 04:58N 32°40' W 079°36'0 0.2
2018-Jul-12 04:28N 32°40' W 079°35'0 0.4
2018-Jul-12 03:56N 32°39' W 079°36'2 4.5
2018-Jul-12 03:30N 32°38' W 079°34'5 9.5
2018-Jul-12 03:00N 32°34' W 079°31'610.2
2018-Jul-12 02:27N 32°30' W 079°26'510.7
2018-Jul-12 01:57N 32°26' W 079°22'511.0
2018-Jul-12 01:30N 32°22' W 079°18'611.1
2018-Jul-12 00:57N 32°18' W 079°13'  
Track history (hours):
 
Tides and Currents Weather Stations Pressure Air Temp Water Temp Dewpoint Dewpoint Depression Visibility Wind Speed Wind Dir Waves Ship Positions

Hamburg Pearl

Last reported at 2018-Jul-22 00:33 UTC. Time now 2018-Jul-22 22:02 UTC.
Position N 32°55' W 079°57'.

Length 178 m; draft 11 m.

Type: Ship. MMSI: 311000512.

Date/timePositionNaut miles runAvg speedWind from/ knotsBaromVisibWave heightAir tempDewpointWater temp
2018-Jul-22 00:33N 32°55' W 079°57'0 0.0
2018-Jul-22 00:30N 32°55' W 079°57'0 0.0
2018-Jul-21 23:57N 32°55' W 079°57'0 0.0
2018-Jul-21 23:27N 32°55' W 079°57'0 0.0
2018-Jul-21 15:33N 32°55' W 079°57'0 0.0
2018-Jul-21 15:03N 32°55' W 079°57'0 0.0
2018-Jul-21 14:57N 32°55' W 079°57'0 0.0
2018-Jul-20 09:42N 32°55' W 079°57'0 0.0
2018-Jul-20 06:57N 32°55' W 079°57'0 0.0
2018-Jul-19 06:39N 32°55' W 079°57'0 0.0
2018-Jul-19 06:27N 32°55' W 079°57'0 0.0
2018-Jul-18 18:48N 32°55' W 079°57'0 0.0
2018-Jul-18 18:30N 32°55' W 079°57'0 0.0
2018-Jul-18 10:27N 32°55' W 079°57'0 0.0
2018-Jul-17 22:18N 32°55' W 079°57'0 0.0
2018-Jul-17 21:57N 32°55' W 079°57'0 0.0
2018-Jul-17 08:45N 32°55' W 079°57'0 0.0
2018-Jul-17 03:42N 32°55' W 079°57'0 0.0
2018-Jul-17 03:15N 32°55' W 079°57'0 0.0
2018-Jul-15 18:33N 32°55' W 079°57'0 0.0
2018-Jul-15 15:52N 32°55' W 079°57'1 3.4
2018-Jul-15 15:30N 32°54' W 079°58'4 7.7
2018-Jul-15 15:00N 32°50' W 079°56'5 9.4
2018-Jul-15 14:30N 32°46' W 079°53'  
2018-Jul-13 01:52N 32°40' W 079°35'0 0.0
2018-Jul-12 23:34N 32°40' W 079°36'0 0.1
2018-Jul-12 23:22N 32°40' W 079°36'0 0.0
2018-Jul-12 09:16N 32°40' W 079°36'0 0.0
2018-Jul-12 07:52N 32°40' W 079°36'0 0.0
2018-Jul-12 07:22N 32°40' W 079°36'0 0.0
2018-Jul-12 05:16N 32°40' W 079°36'0 0.0
2018-Jul-12 04:58N 32°40' W 079°36'0 0.2
2018-Jul-12 04:28N 32°40' W 079°35'0 0.4
2018-Jul-12 03:56N 32°39' W 079°36'2 4.5
2018-Jul-12 03:30N 32°38' W 079°34'5 9.5
2018-Jul-12 03:00N 32°34' W 079°31'610.2
2018-Jul-12 02:27N 32°30' W 079°26'510.7
2018-Jul-12 01:57N 32°26' W 079°22'511.0
2018-Jul-12 01:30N 32°22' W 079°18'611.1
2018-Jul-12 00:57N 32°18' W 079°13'  

Dump ship's entire track history